createdAt,value
2023-04-27T00:00:37.397Z,77.82
2023-04-27T00:03:06.565Z,78.03
2023-04-27T00:05:39.356Z,78.04
2023-04-27T00:08:07.707Z,78.20
2023-04-27T00:10:35.665Z,77.86
2023-04-27T00:13:03.530Z,78.12
2023-04-27T00:15:31.266Z,78.63
2023-04-27T00:17:59.220Z,78.95
2023-04-27T00:20:26.877Z,78.13
2023-04-27T00:22:56.637Z,78.64
2023-04-27T00:25:24.574Z,78.25
2023-04-27T00:27:52.218Z,78.25
2023-04-27T00:30:19.914Z,78.36
2023-04-27T00:32:47.948Z,78.41
2023-04-27T00:35:17.586Z,78.37
2023-04-27T00:37:45.372Z,79.37
2023-04-27T00:40:14.773Z,79.45
2023-04-27T00:42:42.626Z,79.28
2023-04-27T00:45:11.746Z,80.09
2023-04-27T00:47:39.462Z,79.94
2023-04-27T00:50:08.623Z,79.91
2023-04-27T00:52:37.275Z,79.87
2023-04-27T00:55:05.900Z,80.14
2023-04-27T00:57:35.463Z,80.59
2023-04-27T01:00:06.880Z,80.33
2023-04-27T01:02:36.945Z,80.28
2023-04-27T01:05:05.015Z,80.26
2023-04-27T01:07:32.884Z,80.50
2023-04-27T01:10:00.501Z,80.38
2023-04-27T01:12:28.630Z,80.11
2023-04-27T01:14:57.592Z,80.29
2023-04-27T01:17:25.671Z,80.50
2023-04-27T01:19:55.324Z,80.40
2023-04-27T01:22:23.316Z,80.25
2023-04-27T01:24:52.334Z,80.20
2023-04-27T01:27:19.999Z,80.49
2023-04-27T01:29:48.124Z,80.30
2023-04-27T01:32:15.748Z,80.15
2023-04-27T01:34:43.752Z,80.69
2023-04-27T01:37:12.031Z,80.34
2023-04-27T01:39:40.047Z,80.51
2023-04-27T01:42:10.406Z,80.24
2023-04-27T01:44:40.820Z,80.85
2023-04-27T01:47:10.196Z,80.65
2023-04-27T01:49:38.010Z,80.87
2023-04-27T01:52:05.678Z,80.76
2023-04-27T01:54:34.773Z,80.17
2023-04-27T01:57:02.644Z,80.49
2023-04-27T01:59:31.812Z,80.62
2023-04-27T02:01:59.545Z,80.76
2023-04-27T02:04:27.585Z,80.96
2023-04-27T02:06:55.307Z,81.17
2023-04-27T02:09:23.164Z,80.95
2023-04-27T02:11:50.884Z,80.91
2023-04-27T02:14:18.660Z,81.45
2023-04-27T02:16:49.348Z,81.35
2023-04-27T02:19:17.328Z,81.67
2023-04-27T02:21:44.975Z,81.85
2023-04-27T02:24:12.758Z,82.19
2023-04-27T02:26:40.694Z,82.59
2023-04-27T02:29:08.947Z,82.20
2023-04-27T02:31:37.281Z,82.51
2023-04-27T02:34:07.016Z,82.58
2023-04-27T02:36:34.710Z,82.56
2023-04-27T02:39:02.707Z,82.74
2023-04-27T02:41:32.731Z,82.94
2023-04-27T02:44:00.510Z,82.78
2023-04-27T02:46:28.185Z,82.60
2023-04-27T02:48:56.517Z,82.38
2023-04-27T02:51:26.065Z,82.37
2023-04-27T02:53:54.466Z,82.46
2023-04-27T02:56:22.089Z,82.74
2023-04-27T02:58:49.877Z,83.05
2023-04-27T03:01:18.184Z,83.00
2023-04-27T03:03:47.438Z,82.99
2023-04-27T03:06:15.865Z,82.81
2023-04-27T03:08:45.948Z,82.45
2023-04-27T03:11:13.768Z,82.83
2023-04-27T03:13:42.641Z,83.54
2023-04-27T03:16:11.668Z,83.65
2023-04-27T03:18:40.631Z,83.89
2023-04-27T03:21:09.317Z,83.56
2023-04-27T03:23:37.447Z,83.76
2023-04-27T03:26:10.917Z,84.12
2023-04-27T03:28:38.705Z,84.08
2023-04-27T03:31:07.437Z,84.13
2023-04-27T03:33:36.260Z,83.95
2023-04-27T03:36:05.523Z,83.87
2023-04-27T03:38:35.916Z,84.08
2023-04-27T03:41:04.438Z,84.02
2023-04-27T03:43:33.422Z,84.23
2023-04-27T03:46:01.392Z,83.88
2023-04-27T03:48:29.257Z,83.73
2023-04-27T03:50:57.249Z,84.07
2023-04-27T03:53:24.928Z,84.33
2023-04-27T03:55:53.108Z,84.48
2023-04-27T03:58:20.765Z,84.54
2023-04-27T04:01:10.088Z,84.95
2023-04-27T04:03:38.441Z,84.85
2023-04-27T04:06:08.846Z,84.94
2023-04-27T04:08:36.542Z,84.89
2023-04-27T04:11:04.359Z,84.82
2023-04-27T04:13:32.154Z,85.16
2023-04-27T04:16:04.544Z,85.17
2023-04-27T04:18:33.717Z,85.14
2023-04-27T04:21:02.152Z,85.06
2023-04-27T04:23:29.942Z,85.23
2023-04-27T04:25:58.596Z,85.30
2023-04-27T04:28:30.675Z,85.17
2023-04-27T04:30:59.071Z,85.26
2023-04-27T04:33:27.203Z,85.32
2023-04-27T04:35:56.192Z,85.33
2023-04-27T04:38:24.435Z,85.00
2023-04-27T04:40:52.933Z,84.76
2023-04-27T04:43:21.414Z,84.72
2023-04-27T04:45:49.298Z,84.73
2023-04-27T04:48:17.634Z,85.08
2023-04-27T04:50:46.575Z,84.64
2023-04-27T04:53:15.858Z,84.88
2023-04-27T04:55:43.537Z,84.76
2023-04-27T04:58:11.316Z,84.46
2023-04-27T05:00:39.068Z,84.16
2023-04-27T05:03:07.600Z,84.21
2023-04-27T05:05:35.621Z,84.15
2023-04-27T05:08:03.443Z,84.31
2023-04-27T05:10:32.690Z,84.12
2023-04-27T05:13:00.313Z,84.00
2023-04-27T05:15:27.955Z,83.73
2023-04-27T05:17:55.709Z,83.36
2023-04-27T05:20:23.334Z,83.80
2023-04-27T05:22:50.960Z,83.68
2023-04-27T05:25:18.858Z,83.72
2023-04-27T05:27:47.783Z,82.46
2023-04-27T05:30:15.644Z,82.47
2023-04-27T05:32:43.305Z,82.64
2023-04-27T05:35:11.347Z,82.90
2023-04-27T05:37:38.942Z,82.46
2023-04-27T05:40:09.337Z,82.60
2023-04-27T05:42:37.030Z,82.48
2023-04-27T05:45:07.574Z,81.72
2023-04-27T05:47:35.239Z,81.63
2023-04-27T05:50:03.686Z,81.59
2023-04-27T05:52:31.681Z,80.49
2023-04-27T05:54:59.838Z,80.58
2023-04-27T05:57:27.798Z,80.26
2023-04-27T05:59:55.590Z,80.27
2023-04-27T06:02:24.809Z,79.86
2023-04-27T06:04:52.563Z,79.94
2023-04-27T06:07:20.541Z,79.92
2023-04-27T06:09:48.132Z,79.11
2023-04-27T06:12:15.893Z,79.38
2023-04-27T06:14:43.484Z,78.54
2023-04-27T06:17:11.313Z,77.66
2023-04-27T06:19:40.578Z,77.81
2023-04-27T06:22:08.536Z,78.29
2023-04-27T06:24:36.736Z,77.28
2023-04-27T06:27:04.693Z,77.32
2023-04-27T06:29:32.337Z,77.63
2023-04-27T06:32:00.230Z,78.27
2023-04-27T06:34:28.007Z,76.77
2023-04-27T06:36:57.267Z,76.69
2023-04-27T06:39:24.864Z,76.03
2023-04-27T06:41:52.463Z,75.12
2023-04-27T06:44:20.124Z,75.58
2023-04-27T06:46:47.736Z,75.12
2023-04-27T06:49:15.648Z,74.02
2023-04-27T06:51:43.691Z,72.70
2023-04-27T06:54:12.624Z,73.19
2023-04-27T06:56:40.704Z,73.57
2023-04-27T06:59:09.037Z,73.17
2023-04-27T07:01:37.259Z,73.37
2023-04-27T07:04:05.252Z,71.53
2023-04-27T07:06:33.554Z,70.79
2023-04-27T07:09:01.242Z,71.21
2023-04-27T07:11:30.368Z,70.04
2023-04-27T07:13:58.017Z,70.02
2023-04-27T07:16:25.978Z,70.66
2023-04-27T07:18:53.596Z,70.74
2023-04-27T07:21:21.861Z,71.59
2023-04-27T07:23:49.491Z,70.66
2023-04-27T07:26:18.030Z,71.64
2023-04-27T07:28:47.329Z,71.21
2023-04-27T07:31:15.323Z,71.17
2023-04-27T07:33:43.286Z,69.93
2023-04-27T07:36:11.296Z,70.19
2023-04-27T07:38:38.894Z,70.34
2023-04-27T07:41:07.398Z,70.26
2023-04-27T07:43:35.154Z,69.82
2023-04-27T07:46:04.504Z,69.04
2023-04-27T07:48:32.647Z,67.83
2023-04-27T07:51:00.254Z,67.91
2023-04-27T07:53:28.015Z,66.67
2023-04-27T07:55:55.617Z,65.73
2023-04-27T07:58:23.399Z,64.73
2023-04-27T08:00:51.006Z,63.21
2023-04-27T08:03:20.377Z,62.69
2023-04-27T08:05:48.346Z,62.35
2023-04-27T08:08:16.936Z,61.88
2023-04-27T08:10:44.630Z,61.71
2023-04-27T08:13:12.764Z,60.08
2023-04-27T08:15:40.512Z,61.75
2023-04-27T08:18:08.271Z,60.89
2023-04-27T08:20:37.213Z,60.31
2023-04-27T08:23:04.966Z,59.93
2023-04-27T08:25:33.591Z,61.82
2023-04-27T08:28:01.419Z,61.67
2023-04-27T08:30:29.074Z,61.00
2023-04-27T08:32:56.791Z,60.58
2023-04-27T08:35:24.400Z,59.85
2023-04-27T08:37:54.372Z,60.48
2023-04-27T08:40:24.490Z,59.31
2023-04-27T08:42:56.643Z,57.82
2023-04-27T08:45:25.019Z,56.00
2023-04-27T08:47:53.506Z,57.05
2023-04-27T08:50:21.340Z,54.51
2023-04-27T08:52:49.723Z,54.41
2023-04-27T08:55:18.851Z,54.57
2023-04-27T08:57:56.119Z,51.32
2023-04-27T09:00:25.425Z,51.61
2023-04-27T09:02:53.658Z,50.74
2023-04-27T09:05:24.420Z,51.30
2023-04-27T09:07:59.613Z,51.99
2023-04-27T09:10:29.913Z,50.59
2023-04-27T09:12:59.391Z,50.08
2023-04-27T09:15:27.367Z,49.67
2023-04-27T09:17:56.801Z,50.33
2023-04-27T09:20:27.234Z,49.19
2023-04-27T09:22:58.491Z,48.38
2023-04-27T09:25:29.521Z,47.68
2023-04-27T09:27:58.331Z,48.28
2023-04-27T09:30:26.618Z,48.37
2023-04-27T09:32:56.991Z,46.64
2023-04-27T09:35:27.290Z,46.60
2023-04-27T09:37:55.860Z,45.54
2023-04-27T09:40:26.620Z,45.15
2023-04-27T09:42:57.421Z,46.02
2023-04-27T09:45:25.960Z,45.49
2023-04-27T09:47:54.039Z,43.91
2023-04-27T09:50:22.072Z,43.02
2023-04-27T09:52:49.934Z,43.68
2023-04-27T09:55:20.987Z,42.67
2023-04-27T09:57:56.097Z,43.62
2023-04-27T10:00:48.418Z,42.11
2023-04-27T10:03:23.741Z,45.93
2023-04-27T10:06:32.879Z,46.84
2023-04-27T10:09:05.065Z,48.46
2023-04-27T10:11:40.738Z,48.03
2023-04-27T10:14:11.234Z,51.81
2023-04-27T10:16:47.292Z,49.32
2023-04-27T10:19:15.719Z,46.54
2023-04-27T10:21:58.984Z,44.77
2023-04-27T10:24:35.797Z,46.07
2023-04-27T10:27:06.282Z,45.39
2023-04-27T10:29:38.883Z,46.55
2023-04-27T10:32:14.023Z,47.39
2023-04-27T10:34:43.870Z,46.28
2023-04-27T10:37:14.088Z,43.92
2023-04-27T10:39:47.639Z,44.75
2023-04-27T10:42:27.112Z,45.47
2023-04-27T10:44:57.545Z,46.29
2023-04-27T10:47:38.061Z,47.17
2023-04-27T10:50:07.012Z,44.78
2023-04-27T10:52:34.958Z,44.92
2023-04-27T10:55:13.806Z,44.66
2023-04-27T10:57:47.703Z,44.05
2023-04-27T11:00:17.565Z,42.93
2023-04-27T11:02:46.628Z,44.17
2023-04-27T11:05:19.418Z,45.64
2023-04-27T11:07:48.043Z,44.27
2023-04-27T11:10:20.307Z,45.10
2023-04-27T11:12:48.197Z,45.45
2023-04-27T11:15:15.979Z,43.21
2023-04-27T11:17:44.343Z,45.02
2023-04-27T11:20:14.359Z,44.93
2023-04-27T11:22:46.813Z,44.99
2023-04-27T11:25:15.156Z,48.58
2023-04-27T11:27:42.836Z,46.86
2023-04-27T11:30:21.163Z,51.40
2023-04-27T11:32:48.893Z,46.95
2023-04-27T11:35:19.221Z,44.86
2023-04-27T11:37:59.391Z,45.58
2023-04-27T11:40:28.932Z,45.72
2023-04-27T11:43:03.133Z,46.95
2023-04-27T11:45:31.565Z,45.06
2023-04-27T11:47:59.870Z,47.26
2023-04-27T11:50:28.904Z,48.57
2023-04-27T11:53:01.410Z,47.25
2023-04-27T11:55:29.036Z,46.05
2023-04-27T11:57:58.942Z,45.67
2023-04-27T12:00:26.898Z,44.92
2023-04-27T12:02:54.574Z,49.04
2023-04-27T12:05:23.326Z,47.99
2023-04-27T12:07:53.211Z,45.91
2023-04-27T12:10:21.087Z,44.90
2023-04-27T12:12:48.858Z,47.45
2023-04-27T12:15:16.605Z,46.61
2023-04-27T12:17:44.284Z,49.40
2023-04-27T12:20:14.641Z,49.11
2023-04-27T12:22:42.370Z,47.40
2023-04-27T12:25:11.475Z,48.61
2023-04-27T12:27:39.066Z,46.00
2023-04-27T12:30:09.457Z,48.68
2023-04-27T12:32:37.156Z,47.26
2023-04-27T12:35:06.218Z,45.44
2023-04-27T12:37:33.985Z,47.94
2023-04-27T12:40:01.796Z,50.35
2023-04-27T12:42:30.737Z,50.79
2023-04-27T12:44:58.492Z,51.01
2023-04-27T12:47:45.998Z,53.79
2023-04-27T12:50:15.708Z,49.92
2023-04-27T12:52:43.283Z,49.40
2023-04-27T12:55:21.507Z,49.85
2023-04-27T12:58:00.153Z,47.06
2023-04-27T13:00:27.902Z,49.42
2023-04-27T13:02:56.609Z,49.03
2023-04-27T13:05:24.732Z,51.04
2023-04-27T13:07:52.315Z,47.37
2023-04-27T13:10:20.029Z,48.74
2023-04-27T13:12:47.706Z,50.36
2023-04-27T13:15:17.066Z,49.22
2023-04-27T13:17:44.736Z,49.29
2023-04-27T13:20:13.327Z,48.19
2023-04-27T13:22:42.236Z,46.69
2023-04-27T13:25:10.603Z,47.61
2023-04-27T13:27:38.223Z,48.14
2023-04-27T13:30:07.320Z,46.75
2023-04-27T13:32:36.459Z,45.64
2023-04-27T13:35:05.374Z,45.33
2023-04-27T13:37:33.363Z,45.34
2023-04-27T13:40:01.255Z,46.05
2023-04-27T13:42:30.023Z,45.50
2023-04-27T13:44:57.882Z,44.58
2023-04-27T13:47:25.496Z,45.85
2023-04-27T13:49:54.942Z,45.35
2023-04-27T13:52:22.536Z,44.97
2023-04-27T13:54:50.126Z,45.34
2023-04-27T13:57:17.891Z,44.83
2023-04-27T13:59:45.464Z,45.58
2023-04-27T14:02:14.729Z,46.44
2023-04-27T14:04:42.386Z,46.13
2023-04-27T14:07:11.594Z,48.00
2023-04-27T14:09:39.178Z,46.63
2023-04-27T14:12:06.947Z,46.47
2023-04-27T14:14:35.738Z,47.01
2023-04-27T14:17:03.811Z,48.21
2023-04-27T14:19:31.517Z,45.21
2023-04-27T14:22:00.018Z,45.29
2023-04-27T14:24:29.660Z,48.10
2023-04-27T14:26:57.523Z,43.42
2023-04-27T14:29:25.663Z,44.29
2023-04-27T14:31:53.981Z,46.05
2023-04-27T14:34:21.744Z,43.76
2023-04-27T14:36:49.476Z,42.53
2023-04-27T14:39:17.157Z,41.91
2023-04-27T14:41:46.291Z,41.31
2023-04-27T14:44:13.876Z,42.92
2023-04-27T14:46:41.665Z,42.85
2023-04-27T14:49:09.298Z,41.66
2023-04-27T14:51:37.024Z,42.52
2023-04-27T14:54:04.962Z,42.85
2023-04-27T14:56:32.690Z,40.86
2023-04-27T14:59:01.648Z,41.40
2023-04-27T15:01:29.462Z,44.56
2023-04-27T15:03:58.049Z,45.47
2023-04-27T15:06:28.149Z,42.32
2023-04-27T15:08:56.078Z,43.53
2023-04-27T15:11:23.747Z,42.90
2023-04-27T15:13:51.422Z,43.12
2023-04-27T15:16:20.832Z,44.59
2023-04-27T15:18:48.468Z,42.41
2023-04-27T15:21:16.050Z,41.63
2023-04-27T15:23:43.642Z,43.65
2023-04-27T15:26:11.229Z,44.36
2023-04-27T15:28:38.791Z,46.13
2023-04-27T15:31:06.608Z,46.18
2023-04-27T15:33:35.765Z,42.65
2023-04-27T15:36:03.597Z,41.13
2023-04-27T15:38:31.304Z,40.29
2023-04-27T15:40:59.111Z,39.96
2023-04-27T15:43:26.919Z,40.55
2023-04-27T15:45:54.640Z,38.82
2023-04-27T15:48:22.474Z,38.80
2023-04-27T15:50:51.396Z,39.24
2023-04-27T15:53:18.979Z,40.92
2023-04-27T15:55:46.791Z,42.01
2023-04-27T15:58:14.628Z,42.17
2023-04-27T16:00:42.259Z,45.36
2023-04-27T16:03:11.343Z,47.74
2023-04-27T16:05:39.220Z,49.43
2023-04-27T16:08:08.346Z,48.33
2023-04-27T16:10:36.014Z,49.01
2023-04-27T16:13:03.713Z,49.72
2023-04-27T16:15:31.297Z,50.89
2023-04-27T16:17:59.333Z,50.01
2023-04-27T16:20:28.934Z,48.50
2023-04-27T16:22:56.840Z,49.07
2023-04-27T16:25:25.776Z,50.79
2023-04-27T16:27:53.342Z,50.76
2023-04-27T16:30:21.812Z,49.77
2023-04-27T16:32:49.470Z,50.91
2023-04-27T16:35:17.052Z,49.81
2023-04-27T16:37:44.762Z,47.78
2023-04-27T16:40:13.497Z,46.25
2023-04-27T16:42:42.513Z,46.31
2023-04-27T16:45:11.169Z,46.47
2023-04-27T16:47:38.975Z,46.55
2023-04-27T16:50:07.489Z,46.69
2023-04-27T16:52:35.261Z,46.27
2023-04-27T16:55:02.852Z,45.68
2023-04-27T16:57:30.492Z,45.24
2023-04-27T17:00:00.879Z,43.99
2023-04-27T17:02:28.893Z,42.70
2023-04-27T17:04:57.560Z,43.94
2023-04-27T17:07:28.466Z,44.44
2023-04-27T17:09:56.103Z,44.75
2023-04-27T17:12:23.817Z,44.71
2023-04-27T17:14:51.433Z,43.05
2023-04-27T17:17:20.483Z,45.36
2023-04-27T17:19:48.060Z,45.92
2023-04-27T17:22:16.539Z,47.09
2023-04-27T17:24:44.134Z,47.71
2023-04-27T17:27:12.547Z,47.72
2023-04-27T17:29:40.147Z,47.78
2023-04-27T17:32:09.178Z,47.97
2023-04-27T17:34:38.781Z,47.92
2023-04-27T17:37:08.052Z,49.52
2023-04-27T17:39:36.042Z,48.54
2023-04-27T17:42:03.731Z,48.35
2023-04-27T17:44:31.835Z,49.19
2023-04-27T17:46:59.414Z,49.73
2023-04-27T17:49:27.599Z,50.51
2023-04-27T17:51:56.665Z,51.36
2023-04-27T17:54:24.279Z,52.10
2023-04-27T17:56:51.903Z,52.92
2023-04-27T17:59:19.706Z,53.71
2023-04-27T18:01:47.315Z,54.37
2023-04-27T18:04:15.191Z,54.83
2023-04-27T18:06:42.808Z,55.53
2023-04-27T18:09:13.100Z,56.58
2023-04-27T18:11:41.186Z,57.24
2023-04-27T18:14:08.918Z,58.16
2023-04-27T18:16:36.531Z,59.08
2023-04-27T18:19:04.438Z,59.40
2023-04-27T18:21:32.611Z,59.48
2023-04-27T18:24:00.290Z,59.81
2023-04-27T18:26:30.514Z,60.01
2023-04-27T18:28:58.502Z,60.09
2023-04-27T18:31:26.350Z,60.29
2023-04-27T18:33:53.989Z,60.39
2023-04-27T18:36:21.852Z,60.33
2023-04-27T18:38:49.515Z,60.35
2023-04-27T18:41:17.183Z,60.39
2023-04-27T18:43:46.850Z,60.50
2023-04-27T18:46:14.630Z,60.58
2023-04-27T18:48:42.279Z,60.77
2023-04-27T18:51:09.850Z,60.92
2023-04-27T18:53:37.448Z,61.32
2023-04-27T18:56:06.320Z,61.37
2023-04-27T18:58:34.941Z,61.59
2023-04-27T19:01:06.105Z,62.44
2023-04-27T19:03:46.634Z,63.10
2023-04-27T19:06:14.609Z,63.28
2023-04-27T19:08:42.337Z,63.71
2023-04-27T19:11:10.165Z,64.42
2023-04-27T19:13:40.772Z,64.90
2023-04-27T19:16:10.100Z,65.02
2023-04-27T19:18:37.831Z,65.66
2023-04-27T19:21:07.790Z,65.97
2023-04-27T19:23:36.625Z,66.52
2023-04-27T19:26:12.589Z,67.06
2023-04-27T19:28:41.513Z,68.01
2023-04-27T19:31:13.372Z,67.92
2023-04-27T19:33:46.797Z,68.09
2023-04-27T19:36:14.943Z,68.51
2023-04-27T19:38:42.536Z,68.69
2023-04-27T19:41:10.698Z,69.11
2023-04-27T19:43:38.276Z,69.40
2023-04-27T19:46:06.209Z,70.24
2023-04-27T19:48:35.171Z,70.40
2023-04-27T19:51:02.919Z,70.64
2023-04-27T19:53:30.512Z,70.79
2023-04-27T19:56:00.590Z,70.95
2023-04-27T19:58:28.403Z,71.58
2023-04-27T20:00:56.025Z,72.22
2023-04-27T20:03:24.071Z,71.79
2023-04-27T20:05:53.562Z,73.31
2023-04-27T20:08:21.400Z,73.05
2023-04-27T20:10:49.197Z,73.41
2023-04-27T20:13:16.852Z,73.86
2023-04-27T20:15:44.510Z,74.86
2023-04-27T20:18:12.301Z,75.04
2023-04-27T20:20:42.013Z,75.06
2023-04-27T20:23:11.286Z,74.95
2023-04-27T20:25:38.951Z,74.93
2023-04-27T20:28:06.541Z,74.61
2023-04-27T20:30:34.370Z,74.44
2023-04-27T20:33:03.609Z,74.45
2023-04-27T20:35:31.290Z,74.60
2023-04-27T20:37:58.902Z,74.65
2023-04-27T20:40:28.172Z,74.85
2023-04-27T20:42:56.347Z,75.14
2023-04-27T20:45:25.363Z,75.05
2023-04-27T20:47:53.087Z,75.55
2023-04-27T20:50:20.699Z,75.58
2023-04-27T20:52:48.284Z,76.27
2023-04-27T20:55:16.068Z,75.98
2023-04-27T20:57:45.003Z,76.01
2023-04-27T21:00:15.364Z,76.35
2023-04-27T21:02:43.026Z,76.46
2023-04-27T21:05:11.001Z,76.49
2023-04-27T21:07:38.584Z,76.89
2023-04-27T21:10:08.110Z,76.98
2023-04-27T21:12:35.719Z,76.95
2023-04-27T21:15:05.324Z,76.78
2023-04-27T21:17:32.917Z,76.88
2023-04-27T21:20:00.665Z,77.36
2023-04-27T21:22:28.260Z,77.70
2023-04-27T21:24:55.965Z,77.91
2023-04-27T21:27:24.981Z,77.99
2023-04-27T21:29:53.194Z,78.42
2023-04-27T21:32:22.824Z,78.04
2023-04-27T21:34:50.973Z,78.24
2023-04-27T21:37:18.682Z,78.06
2023-04-27T21:39:46.568Z,78.12
2023-04-27T21:42:15.780Z,77.48
2023-04-27T21:44:43.348Z,77.65
2023-04-27T21:47:11.300Z,78.38
2023-04-27T21:49:40.239Z,78.45
2023-04-27T21:52:07.942Z,78.78
2023-04-27T21:54:35.530Z,79.21
2023-04-27T21:57:04.239Z,79.49
2023-04-27T21:59:31.823Z,79.44
2023-04-27T22:01:59.894Z,79.60
2023-04-27T22:04:28.752Z,79.78
2023-04-27T22:06:58.051Z,79.62
2023-04-27T22:09:25.612Z,79.54
2023-04-27T22:11:53.181Z,79.05
2023-04-27T22:14:20.874Z,79.27
2023-04-27T22:16:49.403Z,79.64
2023-04-27T22:19:17.848Z,80.04
2023-04-27T22:21:45.787Z,79.99
2023-04-27T22:24:15.012Z,79.86
2023-04-27T22:26:42.935Z,79.97
2023-04-27T22:29:10.526Z,80.02
2023-04-27T22:31:38.183Z,80.52
2023-04-27T22:34:06.196Z,80.74
2023-04-27T22:36:34.184Z,80.97
2023-04-27T22:39:01.771Z,81.28
2023-04-27T22:41:30.802Z,81.49
2023-04-27T22:43:58.375Z,81.71
2023-04-27T22:46:26.482Z,81.50
2023-04-27T22:48:55.054Z,81.63
2023-04-27T22:51:23.724Z,81.87
2023-04-27T22:53:51.309Z,81.77
2023-04-27T22:56:19.127Z,81.73
2023-04-27T22:58:48.087Z,81.65
2023-04-27T23:01:15.733Z,81.64
2023-04-27T23:03:43.632Z,81.24
2023-04-27T23:06:14.221Z,81.43
2023-04-27T23:08:44.720Z,81.36
2023-04-27T23:11:15.190Z,81.52
2023-04-27T23:13:42.798Z,81.57
2023-04-27T23:16:11.838Z,81.53
2023-04-27T23:18:40.025Z,81.22
2023-04-27T23:21:07.641Z,81.71
2023-04-27T23:23:35.971Z,82.02
2023-04-27T23:26:03.574Z,82.77
2023-04-27T23:28:31.521Z,82.39
2023-04-27T23:30:59.133Z,82.30
2023-04-27T23:33:28.548Z,81.82
2023-04-27T23:35:56.320Z,82.53
2023-04-27T23:38:24.193Z,82.51
2023-04-27T23:40:52.024Z,83.01
2023-04-27T23:43:19.834Z,82.52
2023-04-27T23:45:49.802Z,82.86
2023-04-27T23:48:17.589Z,83.27
2023-04-27T23:50:46.614Z,83.17
2023-04-27T23:53:14.332Z,83.44
2023-04-27T23:55:41.947Z,83.90
2023-04-27T23:58:09.646Z,83.41
